Time;durP1;ratioP1;P1;durP2;ratioP2;P2;SDS_P1;SDS_P2;PMS_P1;PMS_P2;Temp;Humidity;BMP_temperature;BMP_pressure;BME280_temperature;BME280_humidity;BME280_pressure;Samples;Min_cycle;Max_cycle;Signal;HPM_P1;HPM_P2
2023/10/20 00:00:37;;;;;;;32.53;23.83;;;15.40;90.60;;;;;;5074057;28;20901;-79
2023/10/20 00:03:05;;;;;;;35.73;24.50;;;15.40;90.60;;;;;;5077670;28;20534;-79
2023/10/20 00:05:35;;;;;;;32.97;24.10;;;15.40;90.70;;;;;;5053754;28;20512;-80
2023/10/20 00:08:03;;;;;;;32.57;24.03;;;15.40;90.60;;;;;;5066744;28;20457;-79
2023/10/20 00:10:35;;;;;;;36.40;24.53;;;15.40;90.60;;;;;;5073109;28;20458;-78
2023/10/20 00:13:04;;;;;;;35.40;23.90;;;15.40;90.60;;;;;;5067528;28;20460;-78
2023/10/20 00:15:33;;;;;;;39.23;26.10;;;15.40;90.60;;;;;;5066229;28;20461;-79
2023/10/20 00:18:02;;;;;;;35.17;25.10;;;15.40;90.50;;;;;;5054759;28;20457;-80
2023/10/20 00:20:30;;;;;;;37.93;24.60;;;15.40;90.60;;;;;;5078265;28;20465;-79
2023/10/20 00:22:59;;;;;;;34.93;25.13;;;15.40;90.70;;;;;;5053548;28;21062;-79
2023/10/20 00:25:28;;;;;;;38.37;25.63;;;15.40;90.70;;;;;;5054201;28;20477;-78
2023/10/20 00:27:58;;;;;;;34.83;24.47;;;15.40;90.60;;;;;;5057078;28;21065;-79
2023/10/20 00:30:26;;;;;;;37.73;25.90;;;15.40;90.60;;;;;;5079799;28;20460;-79
2023/10/20 00:32:56;;;;;;;38.57;26.30;;;15.40;90.50;;;;;;5078351;28;20540;-78
2023/10/20 00:35:24;;;;;;;38.80;27.73;;;15.40;90.40;;;;;;5083671;28;20448;-79
2023/10/20 00:37:52;;;;;;;42.60;30.37;;;15.40;90.30;;;;;;5099556;28;20452;-79
2023/10/20 00:40:22;;;;;;;47.20;31.57;;;15.40;90.30;;;;;;5096403;28;20437;-79
2023/10/20 00:42:51;;;;;;;39.50;28.67;;;15.40;90.30;;;;;;5089046;28;20572;-79
2023/10/20 00:45:19;;;;;;;45.37;28.60;;;15.40;90.40;;;;;;5091888;28;20473;-78
2023/10/20 00:47:48;;;;;;;39.10;27.40;;;15.40;90.40;;;;;;5086021;28;20455;-78
2023/10/20 00:50:18;;;;;;;45.70;30.67;;;15.40;90.40;;;;;;5088830;28;20449;-79
2023/10/20 00:52:52;;;;;;;42.47;28.47;;;15.30;90.40;;;;;;5073688;28;20543;-79
2023/10/20 00:55:23;;;;;;;41.23;30.80;;;15.30;90.40;;;;;;5075699;28;20448;-79
2023/10/20 00:57:54;;;;;;;43.27;29.87;;;15.30;90.40;;;;;;5076082;28;20469;-80
2023/10/20 01:00:22;;;;;;;44.70;32.17;;;15.40;90.40;;;;;;5100336;28;20456;-79
2023/10/20 01:02:50;;;;;;;49.80;32.70;;;15.40;90.30;;;;;;5074189;28;20466;-80
2023/10/20 01:05:22;;;;;;;46.80;31.43;;;15.40;90.30;;;;;;5074820;28;20562;-79
2023/10/20 01:07:50;;;;;;;43.93;31.13;;;15.40;90.30;;;;;;5106122;28;20455;-79
2023/10/20 01:10:19;;;;;;;50.13;31.30;;;15.40;90.20;;;;;;5079510;28;21329;-80
2023/10/20 01:12:49;;;;;;;47.77;31.20;;;15.40;90.20;;;;;;5077605;28;20532;-82
2023/10/20 01:15:18;;;;;;;44.53;30.73;;;15.40;90.20;;;;;;5083314;28;20458;-79
2023/10/20 01:17:46;;;;;;;43.37;31.07;;;15.40;90.20;;;;;;5092375;28;20456;-79
2023/10/20 01:20:14;;;;;;;45.47;31.30;;;15.30;90.10;;;;;;5075942;28;20456;-78
2023/10/20 01:22:44;;;;;;;42.57;30.30;;;15.30;90.10;;;;;;5071294;28;20549;-78
2023/10/20 01:25:14;;;;;;;43.83;29.00;;;15.30;90.10;;;;;;5096535;28;20622;-79
2023/10/20 01:27:42;;;;;;;42.20;29.90;;;15.30;90.10;;;;;;5100209;28;20531;-81
2023/10/20 01:30:11;;;;;;;42.33;29.47;;;15.30;90.10;;;;;;5080892;28;20539;-79
2023/10/20 01:32:42;;;;;;;39.80;28.90;;;15.30;90.10;;;;;;5101464;28;20466;-80
2023/10/20 01:35:10;;;;;;;45.37;29.67;;;15.30;90.10;;;;;;5096546;28;20459;-78
2023/10/20 01:37:38;;;;;;;43.00;29.00;;;15.30;90.10;;;;;;5072614;28;20444;-77
2023/10/20 01:40:08;;;;;;;41.27;28.90;;;15.30;90.10;;;;;;5099411;28;20451;-81
2023/10/20 01:42:38;;;;;;;45.47;32.10;;;15.20;90.10;;;;;;5072915;28;20533;-78
2023/10/20 01:45:09;;;;;;;56.97;32.57;;;15.20;90.10;;;;;;5068277;28;21187;-80
2023/10/20 01:47:37;;;;;;;44.33;31.90;;;15.20;90.10;;;;;;5074835;28;21079;-78
2023/10/20 01:50:06;;;;;;;49.50;31.73;;;15.20;90.10;;;;;;5074132;28;20563;-79
2023/10/20 01:52:34;;;;;;;48.37;33.80;;;15.20;90.10;;;;;;5096352;28;21020;-80
2023/10/20 01:55:02;;;;;;;43.83;29.70;;;15.20;90.20;;;;;;5076491;28;20457;-80
2023/10/20 01:57:31;;;;;;;48.50;31.37;;;15.20;90.20;;;;;;5081480;28;20528;-80
2023/10/20 02:00:01;;;;;;;45.20;30.90;;;15.20;90.20;;;;;;5077641;28;20515;-82
2023/10/20 02:02:39;;;;;;;44.03;30.40;;;15.10;90.20;;;;;;5095435;28;20555;-82
2023/10/20 02:05:09;;;;;;;44.70;31.70;;;15.10;90.30;;;;;;5087124;28;21275;-81
2023/10/20 02:07:38;;;;;;;46.57;31.37;;;15.10;90.30;;;;;;5072986;28;20471;-80
2023/10/20 02:10:07;;;;;;;45.40;33.00;;;15.00;90.40;;;;;;5080588;28;20443;-78
2023/10/20 02:12:36;;;;;;;45.67;32.30;;;15.00;90.40;;;;;;5091088;28;20492;-78
2023/10/20 02:15:07;;;;;;;44.00;31.00;;;15.00;90.50;;;;;;5089128;28;20483;-80
2023/10/20 02:17:36;;;;;;;48.13;30.90;;;15.00;90.50;;;;;;5087031;28;20457;-79
2023/10/20 02:20:07;;;;;;;49.77;32.13;;;15.00;90.50;;;;;;5084271;28;20470;-79
2023/10/20 02:22:35;;;;;;;48.80;32.83;;;15.00;90.50;;;;;;5069810;28;20604;-81
2023/10/20 02:25:04;;;;;;;48.13;31.97;;;15.10;90.40;;;;;;5087228;28;20448;-79
2023/10/20 02:27:32;;;;;;;46.67;34.17;;;15.10;90.40;;;;;;5069531;28;20468;-79
2023/10/20 02:30:00;;;;;;;50.03;33.17;;;15.10;90.30;;;;;;5068963;28;20448;-79
2023/10/20 02:32:29;;;;;;;44.00;31.47;;;15.00;90.30;;;;;;5087806;28;21030;-80
2023/10/20 02:34:58;;;;;;;43.07;31.30;;;15.00;90.40;;;;;;5071824;28;20464;-81
2023/10/20 02:37:27;;;;;;;50.27;33.03;;;15.00;90.40;;;;;;5086224;28;20460;-80
2023/10/20 02:39:55;;;;;;;47.27;33.30;;;15.00;90.30;;;;;;5081800;28;20543;-76
2023/10/20 02:42:23;;;;;;;45.47;31.00;;;14.90;90.40;;;;;;5093482;28;20479;-77
2023/10/20 02:44:51;;;;;;;49.10;32.27;;;14.90;90.50;;;;;;5103060;28;20448;-80
2023/10/20 02:47:20;;;;;;;46.63;32.07;;;14.80;90.60;;;;;;5094454;28;20801;-79
2023/10/20 02:49:55;;;;;;;48.00;32.00;;;14.80;90.60;;;;;;5077049;28;20456;-79
2023/10/20 02:52:23;;;;;;;44.23;31.47;;;14.80;90.70;;;;;;5096216;28;20483;-80
2023/10/20 02:54:54;;;;;;;53.40;33.10;;;14.80;90.70;;;;;;5095037;28;20464;-79
2023/10/20 02:57:22;;;;;;;45.87;31.90;;;14.80;90.70;;;;;;5084567;28;20561;-80
2023/10/20 02:59:51;;;;;;;46.83;33.33;;;14.80;90.70;;;;;;5102346;28;20452;-79
2023/10/20 03:02:20;;;;;;;46.20;33.40;;;14.80;90.70;;;;;;5099814;28;20476;-80
2023/10/20 03:04:51;;;;;;;44.57;32.90;;;14.80;90.70;;;;;;5097116;28;20472;-81
2023/10/20 03:07:24;;;;;;;43.07;32.83;;;14.80;90.60;;;;;;5076288;28;20501;-80
2023/10/20 03:09:54;;;;;;;50.13;34.00;;;14.80;90.60;;;;;;5092371;28;20456;-79
2023/10/20 03:12:22;;;;;;;49.80;35.27;;;14.80;90.60;;;;;;5075135;28;20552;-79
2023/10/20 03:14:50;;;;;;;48.80;35.07;;;14.80;90.60;;;;;;5076566;28;20465;-81
2023/10/20 03:17:18;;;;;;;46.87;33.90;;;14.80;90.60;;;;;;5076806;28;20460;-78
2023/10/20 03:19:46;;;;;;;49.20;34.90;;;14.80;90.60;;;;;;5100553;28;20987;-80
2023/10/20 03:22:14;;;;;;;63.17;42.33;;;14.80;90.60;;;;;;5084607;28;20792;-78
2023/10/20 03:24:43;;;;;;;73.33;47.37;;;14.80;90.50;;;;;;5081989;28;21004;-80
2023/10/20 03:27:13;;;;;;;56.67;37.50;;;14.80;90.40;;;;;;5104482;28;20484;-79
2023/10/20 03:29:41;;;;;;;48.30;33.53;;;14.80;90.40;;;;;;5092870;28;20457;-80
2023/10/20 03:32:10;;;;;;;50.77;33.90;;;14.80;90.40;;;;;;5102164;28;20935;-79
2023/10/20 03:34:38;;;;;;;47.67;33.70;;;14.80;90.40;;;;;;5072805;28;20995;-80
2023/10/20 03:37:06;;;;;;;52.03;35.77;;;14.80;90.40;;;;;;5096173;28;20458;-79
2023/10/20 03:39:36;;;;;;;52.43;35.60;;;14.80;90.40;;;;;;5102150;28;20567;-81
2023/10/20 03:42:07;;;;;;;48.63;34.80;;;14.80;90.40;;;;;;5072694;28;20449;-78
2023/10/20 03:44:35;;;;;;;47.90;35.10;;;14.80;90.30;;;;;;5096454;28;20473;-78
2023/10/20 03:47:05;;;;;;;52.07;35.43;;;14.70;90.30;;;;;;5076139;28;20538;-79
2023/10/20 03:49:35;;;;;;;52.47;35.37;;;14.70;90.30;;;;;;5089009;28;20453;-79
2023/10/20 03:52:06;;;;;;;47.10;34.57;;;14.60;90.50;;;;;;5075354;28;20513;-79
2023/10/20 03:54:34;;;;;;;54.50;37.20;;;14.60;90.50;;;;;;5074666;28;20461;-81
2023/10/20 03:57:03;;;;;;;48.10;35.03;;;14.60;90.50;;;;;;5069387;28;20963;-78
2023/10/20 03:59:34;;;;;;;47.63;32.47;;;14.60;90.50;;;;;;5076800;28;20487;-80
2023/10/20 04:02:02;;;;;;;45.53;33.13;;;14.70;90.60;;;;;;5079016;28;20465;-78
2023/10/20 04:04:30;;;;;;;48.97;33.30;;;14.70;90.40;;;;;;5093595;28;20464;-79
2023/10/20 04:06:59;;;;;;;49.93;33.27;;;14.60;90.40;;;;;;5083832;28;20487;-80
2023/10/20 04:09:29;;;;;;;49.03;34.37;;;14.70;90.40;;;;;;5079877;28;20494;-79
2023/10/20 04:11:57;;;;;;;48.60;35.33;;;14.70;90.20;;;;;;5094368;28;20506;-80
2023/10/20 04:14:25;;;;;;;48.53;34.73;;;14.70;90.20;;;;;;5088753;28;21355;-80
2023/10/20 04:16:54;;;;;;;48.37;33.90;;;14.70;90.20;;;;;;5089053;28;20457;-79
2023/10/20 04:19:25;;;;;;;51.47;33.50;;;14.60;90.20;;;;;;5072883;28;20460;-78
2023/10/20 04:21:54;;;;;;;50.90;32.63;;;14.60;90.20;;;;;;5087921;28;20449;-78
2023/10/20 04:24:23;;;;;;;48.80;34.77;;;14.60;90.20;;;;;;5090210;28;20939;-80
2023/10/20 04:26:52;;;;;;;50.27;34.20;;;14.50;90.20;;;;;;5094805;28;20461;-77
2023/10/20 04:29:34;;;;;;;46.80;33.40;;;14.50;90.20;;;;;;5091991;28;20452;-79
2023/10/20 04:51:50;;;;;;;49.30;32.43;;;14.40;90.40;;;;;;5095074;28;20463;-79
2023/10/20 04:54:22;;;;;;;51.50;33.97;;;14.40;90.40;;;;;;5084538;28;20550;-78
2023/10/20 04:59:32;;;;;;;51.60;33.20;;;14.30;90.30;;;;;;5071896;28;20820;-79
2023/10/20 05:02:09;;;;;;;44.27;33.40;;;14.40;90.30;;;;;;5093748;28;20484;-79
2023/10/20 05:04:40;;;;;;;44.13;31.73;;;14.40;90.30;;;;;;5094142;28;20475;-79
2023/10/20 05:07:10;;;;;;;45.40;32.63;;;14.40;90.20;;;;;;5089693;28;20463;-78
2023/10/20 05:09:43;;;;;;;45.73;32.23;;;14.40;90.20;;;;;;5093897;28;20475;-79
2023/10/20 05:12:12;;;;;;;44.27;30.90;;;14.40;90.10;;;;;;5087402;28;20787;-79
2023/10/20 05:14:40;;;;;;;39.33;30.23;;;14.40;90.10;;;;;;5091176;28;20460;-79
2023/10/20 05:17:10;;;;;;;40.93;30.60;;;14.40;90.10;;;;;;5088118;28;20460;-79
2023/10/20 05:19:40;;;;;;;36.87;27.77;;;14.40;90.10;;;;;;5099181;28;20456;-78
2023/10/20 05:22:09;;;;;;;40.43;28.90;;;14.40;90.00;;;;;;5096191;28;20483;-78
2023/10/20 05:24:37;;;;;;;41.90;28.17;;;14.40;90.00;;;;;;5077706;28;20472;-79
2023/10/20 05:27:05;;;;;;;44.27;29.90;;;14.40;90.00;;;;;;5078774;28;20528;-80
2023/10/20 05:29:33;;;;;;;43.40;31.10;;;14.40;90.00;;;;;;5087119;28;20476;-79
2023/10/20 05:32:01;;;;;;;37.17;27.93;;;14.40;89.90;;;;;;5095003;28;20975;-78
2023/10/20 05:34:29;;;;;;;38.10;29.70;;;14.40;89.80;;;;;;5092293;28;20460;-80
2023/10/20 05:36:59;;;;;;;41.13;29.40;;;14.40;89.90;;;;;;5094727;28;20456;-77
2023/10/20 05:39:27;;;;;;;38.20;28.27;;;14.40;89.80;;;;;;5089154;28;20538;-79
2023/10/20 05:41:55;;;;;;;38.00;28.40;;;14.30;89.60;;;;;;5092093;28;20953;-77
2023/10/20 05:44:23;;;;;;;40.43;29.27;;;14.30;89.60;;;;;;5089664;28;20487;-82
2023/10/20 05:46:52;;;;;;;39.00;27.10;;;14.30;89.50;;;;;;5093772;28;20545;-80
2023/10/20 05:49:21;;;;;;;38.77;28.90;;;14.20;89.50;;;;;;5093887;28;20488;-80
2023/10/20 05:51:51;;;;;;;41.57;28.30;;;14.20;89.60;;;;;;5062177;28;20542;-78
2023/10/20 05:54:20;;;;;;;40.30;28.10;;;14.20;89.60;;;;;;5090964;28;20467;-80
2023/10/20 05:56:48;;;;;;;41.73;29.27;;;14.20;89.70;;;;;;5096790;28;20459;-79
2023/10/20 05:59:16;;;;;;;39.40;27.93;;;14.10;89.70;;;;;;5095774;28;20526;-79
2023/10/20 06:01:45;;;;;;;39.70;29.23;;;14.20;89.70;;;;;;5091093;28;21122;-78
2023/10/20 06:04:13;;;;;;;41.50;28.90;;;14.20;89.60;;;;;;5087467;28;20936;-80
2023/10/20 06:06:41;;;;;;;43.83;29.80;;;14.10;89.60;;;;;;5090152;28;20452;-77
2023/10/20 06:09:09;;;;;;;43.53;31.20;;;14.10;89.50;;;;;;5093722;28;20468;-78
2023/10/20 06:11:39;;;;;;;42.50;29.83;;;14.10;89.40;;;;;;5077987;28;20462;-77
2023/10/20 06:14:07;;;;;;;39.80;27.63;;;14.10;89.40;;;;;;5078057;28;20542;-78
2023/10/20 06:16:35;;;;;;;51.70;33.70;;;14.00;89.40;;;;;;5095957;28;20436;-80
2023/10/20 06:19:03;;;;;;;39.73;32.50;;;14.00;89.40;;;;;;5098340;28;20462;-78
2023/10/20 06:21:31;;;;;;;44.23;30.43;;;14.00;89.60;;;;;;5098971;28;20857;-78
2023/10/20 06:23:59;;;;;;;39.60;29.13;;;13.90;89.50;;;;;;5096511;28;20527;-78
2023/10/20 06:26:27;;;;;;;40.93;29.47;;;13.90;89.50;;;;;;5101167;28;20456;-78
2023/10/20 06:28:56;;;;;;;43.67;31.50;;;13.90;89.60;;;;;;5099659;28;20995;-78
2023/10/20 06:31:41;;;;;;;38.07;28.57;;;13.90;89.60;;;;;;5094767;28;20784;-78
2023/10/20 06:34:19;;;;;;;40.97;30.37;;;13.90;89.70;;;;;;5080877;28;20466;-79
2023/10/20 06:36:48;;;;;;;39.57;30.67;;;13.90;89.50;;;;;;5089454;28;20521;-78
2023/10/20 06:39:18;;;;;;;40.17;29.50;;;13.90;89.50;;;;;;5069081;28;20453;-78
2023/10/20 06:41:47;;;;;;;48.40;31.43;;;13.90;89.40;;;;;;5094147;28;20513;-77
2023/10/20 06:44:21;;;;;;;39.43;28.83;;;13.90;89.40;;;;;;5078821;28;20551;-78
2023/10/20 06:46:51;;;;;;;41.57;31.00;;;13.90;89.40;;;;;;5096702;28;20460;-80
2023/10/20 06:49:19;;;;;;;39.77;29.87;;;13.90;89.40;;;;;;5097843;28;20553;-79
2023/10/20 06:51:47;;;;;;;42.27;30.77;;;13.90;89.40;;;;;;5095890;28;20509;-79
2023/10/20 06:54:17;;;;;;;49.63;31.90;;;13.90;89.50;;;;;;5088425;28;20950;-77
2023/10/20 06:56:45;;;;;;;42.83;30.77;;;13.90;89.30;;;;;;5093846;28;20480;-79
2023/10/20 06:59:14;;;;;;;42.53;29.60;;;13.80;89.20;;;;;;5083366;28;20801;-78
2023/10/20 07:01:44;;;;;;;46.50;33.03;;;13.80;89.20;;;;;;5094285;28;20853;-79
2023/10/20 07:04:13;;;;;;;49.73;32.97;;;13.80;89.30;;;;;;5099802;28;20453;-80
2023/10/20 07:06:41;;;;;;;43.50;32.30;;;13.80;89.30;;;;;;5091654;28;21056;-78
2023/10/20 07:09:12;;;;;;;45.47;33.47;;;13.80;89.30;;;;;;5099570;28;20544;-78
2023/10/20 07:11:41;;;;;;;45.27;32.10;;;13.80;89.30;;;;;;5101272;28;20444;-77
2023/10/20 07:14:10;;;;;;;48.03;36.20;;;13.80;89.30;;;;;;5091496;28;20449;-78
2023/10/20 07:16:37;;;;;;;49.87;34.70;;;13.80;89.40;;;;;;5097461;28;20788;-80
2023/10/20 07:19:07;;;;;;;46.40;33.20;;;13.80;89.30;;;;;;5076868;28;20530;-78
2023/10/20 07:21:35;;;;;;;47.53;34.63;;;13.80;89.40;;;;;;5106035;28;20446;-79
2023/10/20 07:24:04;;;;;;;47.47;34.37;;;13.80;89.40;;;;;;5094196;28;20451;-79
2023/10/20 07:26:33;;;;;;;42.10;31.33;;;13.80;89.40;;;;;;5091838;28;20445;-78
2023/10/20 07:29:01;;;;;;;44.43;31.43;;;13.80;89.50;;;;;;5094829;28;21042;-79
2023/10/20 07:31:29;;;;;;;45.87;31.53;;;13.80;89.50;;;;;;5093526;28;20491;-78
2023/10/20 07:33:58;;;;;;;39.80;30.20;;;13.80;89.50;;;;;;5097752;28;20449;-77
2023/10/20 07:36:27;;;;;;;41.97;28.13;;;13.80;89.50;;;;;;5097238;28;20448;-77
2023/10/20 07:38:55;;;;;;;44.20;31.10;;;13.90;89.60;;;;;;5092911;28;20824;-79
2023/10/20 07:41:24;;;;;;;44.97;30.60;;;13.90;89.60;;;;;;5099950;28;20487;-78
2023/10/20 07:43:52;;;;;;;44.73;30.37;;;13.90;89.50;;;;;;5094570;28;20487;-78
2023/10/20 07:46:21;;;;;;;41.73;29.27;;;13.90;89.50;;;;;;5077830;28;20527;-78
2023/10/20 07:48:49;;;;;;;44.73;30.73;;;13.90;89.50;;;;;;5096223;28;20503;-77
2023/10/20 07:51:18;;;;;;;45.57;32.50;;;13.90;89.60;;;;;;5099359;28;20993;-79
2023/10/20 07:53:47;;;;;;;48.20;32.73;;;13.90;89.60;;;;;;5097608;28;20453;-78
2023/10/20 07:56:16;;;;;;;40.53;29.50;;;13.90;89.60;;;;;;5095841;28;20449;-80
2023/10/20 07:58:44;;;;;;;42.47;30.07;;;14.00;89.60;;;;;;5097214;28;20449;-80
2023/10/20 08:01:12;;;;;;;42.63;31.37;;;14.00;89.60;;;;;;5097090;28;20567;-78
2023/10/20 08:03:45;;;;;;;104.73;53.90;;;14.00;89.40;;;;;;5097677;28;20489;-79
2023/10/20 08:06:14;;;;;;;40.40;28.67;;;14.00;89.40;;;;;;5090987;28;20656;-77
2023/10/20 08:08:42;;;;;;;40.80;29.70;;;14.00;89.40;;;;;;5096346;28;20449;-79
2023/10/20 08:11:12;;;;;;;44.67;26.97;;;14.00;89.40;;;;;;5100114;28;20887;-79
2023/10/20 08:13:40;;;;;;;34.73;26.70;;;14.00;89.40;;;;;;5085622;28;20459;-78
2023/10/20 08:16:08;;;;;;;39.80;26.90;;;14.00;89.50;;;;;;5095101;28;20452;-76
2023/10/20 08:18:36;;;;;;;39.10;27.43;;;14.00;89.60;;;;;;5092913;28;20446;-79
2023/10/20 08:21:05;;;;;;;38.87;28.03;;;14.10;89.60;;;;;;5093485;28;20506;-78
2023/10/20 08:23:34;;;;;;;38.77;28.07;;;14.10;89.70;;;;;;5094414;28;20444;-76
2023/10/20 08:26:16;;;;;;;40.87;26.67;;;14.10;89.60;;;;;;5080901;28;20536;-77
2023/10/20 08:28:44;;;;;;;38.83;27.60;;;14.20;89.60;;;;;;5099061;28;20527;-78
2023/10/20 08:31:14;;;;;;;39.73;27.73;;;14.20;89.60;;;;;;5097654;28;20886;-76
2023/10/20 08:33:42;;;;;;;38.40;27.77;;;14.20;89.60;;;;;;5080108;28;20503;-78
2023/10/20 08:36:12;;;;;;;42.83;31.03;;;14.20;89.60;;;;;;5074883;28;20497;-79
2023/10/20 08:38:42;;;;;;;41.70;27.70;;;14.20;89.60;;;;;;5101358;28;20539;-78
2023/10/20 08:41:11;;;;;;;39.80;29.00;;;14.20;89.60;;;;;;5075247;28;20460;-79
2023/10/20 08:43:43;;;;;;;36.53;26.50;;;14.30;89.70;;;;;;5073063;28;21041;-79
2023/10/20 08:46:13;;;;;;;38.70;27.43;;;14.30;89.60;;;;;;5095840;28;20440;-80
2023/10/20 08:48:42;;;;;;;38.43;26.43;;;14.30;89.60;;;;;;5092779;28;20480;-77
2023/10/20 08:51:13;;;;;;;38.73;26.47;;;14.30;89.60;;;;;;5097609;28;20568;-77
2023/10/20 08:53:44;;;;;;;32.67;24.10;;;14.30;89.60;;;;;;5079377;28;20458;-79
2023/10/20 08:56:13;;;;;;;34.97;25.00;;;14.30;89.60;;;;;;5091001;28;20445;-80
2023/10/20 08:58:46;;;;;;;40.50;26.87;;;14.30;89.60;;;;;;5097360;28;20449;-79
2023/10/20 09:01:15;;;;;;;35.40;25.10;;;14.40;89.60;;;;;;5092956;28;20503;-79
2023/10/20 09:03:45;;;;;;;35.33;25.83;;;14.40;89.60;;;;;;5096313;28;20464;-78
2023/10/20 09:06:15;;;;;;;34.67;24.93;;;14.40;89.60;;;;;;5097405;28;20453;-79
2023/10/20 09:08:43;;;;;;;32.07;23.67;;;14.50;89.60;;;;;;5099389;28;20478;-78
2023/10/20 09:11:12;;;;;;;30.10;23.70;;;14.50;89.60;;;;;;5093475;28;20480;-78
2023/10/20 09:13:44;;;;;;;31.17;23.33;;;14.50;89.60;;;;;;5087118;28;20479;-78
2023/10/20 09:16:15;;;;;;;33.57;24.60;;;14.50;89.60;;;;;;5096069;28;20475;-78
2023/10/20 09:18:46;;;;;;;33.70;26.20;;;14.50;89.60;;;;;;5095020;28;20480;-80
2023/10/20 09:21:15;;;;;;;32.33;22.53;;;14.50;89.70;;;;;;5094721;28;20456;-79
2023/10/20 09:23:55;;;;;;;36.47;23.77;;;14.50;89.60;;;;;;5093802;28;20452;-80
2023/10/20 09:26:23;;;;;;;48.13;27.70;;;14.60;89.60;;;;;;5093496;28;20455;-79
2023/10/20 09:28:54;;;;;;;35.27;25.97;;;14.60;89.60;;;;;;5095460;28;20531;-79
2023/10/20 09:31:24;;;;;;;33.13;24.40;;;14.60;89.70;;;;;;5093233;28;20534;-78
2023/10/20 09:33:52;;;;;;;38.27;26.80;;;14.60;89.60;;;;;;5091775;28;20455;-79
2023/10/20 09:36:22;;;;;;;36.77;26.47;;;14.60;89.60;;;;;;5074109;28;20455;-78
2023/10/20 09:38:53;;;;;;;33.37;25.17;;;14.60;89.60;;;;;;5094442;28;20448;-79
2023/10/20 09:41:23;;;;;;;32.43;25.63;;;14.60;89.70;;;;;;5073101;28;20848;-80
2023/10/20 09:43:54;;;;;;;37.03;25.60;;;14.60;89.80;;;;;;5091882;28;20459;-78
2023/10/20 09:46:36;;;;;;;33.10;25.47;;;14.50;89.80;;;;;;5075089;28;20456;-79
2023/10/20 09:49:14;;;;;;;38.83;26.70;;;14.60;89.90;;;;;;5094309;28;20463;-79
2023/10/20 09:51:45;;;;;;;36.37;26.77;;;14.60;89.90;;;;;;5068308;28;21068;-78
2023/10/20 09:54:14;;;;;;;35.30;25.47;;;14.60;89.80;;;;;;5076224;28;20496;-77
2023/10/20 09:56:44;;;;;;;36.80;27.30;;;14.60;89.80;;;;;;5096682;28;20536;-78
2023/10/20 09:59:20;;;;;;;37.83;28.37;;;14.60;89.80;;;;;;5076348;28;20713;-79
2023/10/20 10:01:48;;;;;;;44.57;27.97;;;14.60;89.90;;;;;;5090425;28;20479;-79
2023/10/20 10:04:24;;;;;;;34.73;25.67;;;14.60;89.80;;;;;;5076140;28;20460;-80
2023/10/20 10:06:52;;;;;;;35.60;27.23;;;14.70;89.80;;;;;;5089099;28;20448;-77
2023/10/20 10:09:21;;;;;;;36.40;27.60;;;14.60;89.90;;;;;;5094390;28;20934;-77
2023/10/20 10:11:49;;;;;;;34.70;26.60;;;14.70;89.80;;;;;;5089205;28;20485;-79
2023/10/20 10:14:22;;;;;;;39.60;27.03;;;14.70;89.90;;;;;;5081792;28;20484;-78
2023/10/20 10:16:53;;;;;;;33.60;24.53;;;14.80;89.90;;;;;;5085244;28;20448;-79
2023/10/20 10:19:26;;;;;;;33.57;26.60;;;14.90;89.90;;;;;;5096941;28;20456;-75
2023/10/20 10:21:57;;;;;;;37.30;26.13;;;14.90;89.90;;;;;;5078517;28;20461;-78
2023/10/20 10:24:26;;;;;;;38.57;27.37;;;15.00;89.70;;;;;;5091969;28;20969;-78
2023/10/20 10:26:57;;;;;;;39.93;26.70;;;15.10;89.70;;;;;;5095279;28;20959;-78
2023/10/20 10:29:50;;;;;;;37.43;27.97;;;15.10;89.60;;;;;;5085209;28;20457;-79
2023/10/20 10:32:19;;;;;;;36.37;27.47;;;15.20;89.50;;;;;;5087692;28;20829;-79
2023/10/20 10:34:51;;;;;;;35.70;26.90;;;15.20;89.50;;;;;;5097561;28;20955;-77
2023/10/20 10:37:32;;;;;;;36.83;26.43;;;15.30;89.50;;;;;;5081587;28;20454;-78
2023/10/20 10:40:12;;;;;;;36.43;25.70;;;15.30;89.40;;;;;;5092080;28;20547;-79
2023/10/20 10:42:42;;;;;;;30.10;20.77;;;15.30;89.50;;;;;;5092998;28;20465;-80
2023/10/20 10:45:18;;;;;;;26.73;20.33;;;15.30;89.60;;;;;;5072424;28;20542;-78
2023/10/20 10:47:46;;;;;;;32.43;20.47;;;15.40;89.70;;;;;;5073470;28;20458;-78
2023/10/20 10:50:16;;;;;;;27.30;21.00;;;15.40;89.70;;;;;;5092597;28;20445;-78
2023/10/20 10:52:45;;;;;;;27.13;19.97;;;15.50;89.60;;;;;;5091047;28;20452;-79
2023/10/20 10:55:13;;;;;;;26.17;20.37;;;15.50;89.60;;;;;;5096227;28;20460;-79
2023/10/20 10:57:46;;;;;;;30.40;21.13;;;15.50;89.50;;;;;;5071181;28;20460;-79
2023/10/20 11:00:16;;;;;;;34.53;24.37;;;15.60;89.40;;;;;;5086708;28;20934;-78
2023/10/20 11:02:46;;;;;;;28.60;20.23;;;15.70;89.40;;;;;;5089861;28;20475;-78
2023/10/20 11:05:15;;;;;;;25.93;19.10;;;15.70;89.30;;;;;;5089715;28;20530;-80
2023/10/20 11:07:56;;;;;;;27.73;21.90;;;15.70;89.20;;;;;;5092321;28;20448;-80
2023/10/20 11:10:26;;;;;;;31.60;23.87;;;15.80;89.10;;;;;;5078582;28;20464;-80
2023/10/20 11:12:55;;;;;;;28.47;18.50;;;15.80;89.10;;;;;;5099115;28;20487;-77
2023/10/20 11:15:29;;;;;;;26.07;17.67;;;15.80;89.00;;;;;;5097059;28;20465;-78
2023/10/20 11:17:58;;;;;;;26.27;19.93;;;15.80;88.80;;;;;;5093757;28;20500;-78
2023/10/20 11:20:29;;;;;;;27.53;19.13;;;15.80;88.90;;;;;;5093247;28;20448;-78
2023/10/20 11:23:00;;;;;;;24.90;18.87;;;15.90;88.90;;;;;;5065702;28;20514;-79
2023/10/20 11:25:30;;;;;;;27.03;19.20;;;15.90;88.80;;;;;;5083550;28;20806;-81
2023/10/20 11:27:58;;;;;;;26.70;19.47;;;16.00;88.70;;;;;;5093915;28;20501;-79
2023/10/20 11:30:31;;;;;;;26.67;19.77;;;16.00;88.70;;;;;;5074120;28;20466;-79
2023/10/20 11:32:59;;;;;;;27.33;19.30;;;16.10;88.70;;;;;;5094682;28;21011;-80
2023/10/20 11:35:28;;;;;;;23.73;18.67;;;16.10;88.70;;;;;;5092563;28;20480;-79
2023/10/20 11:37:57;;;;;;;26.40;19.10;;;16.20;88.60;;;;;;5096043;28;20487;-77
2023/10/20 11:40:27;;;;;;;23.43;19.03;;;16.20;88.50;;;;;;5096832;28;20532;-78
2023/10/20 11:42:56;;;;;;;33.40;20.87;;;16.20;88.50;;;;;;5077133;28;20547;-78
2023/10/20 11:45:24;;;;;;;23.67;18.53;;;16.30;88.30;;;;;;5092245;28;20452;-79
2023/10/20 11:47:54;;;;;;;25.07;19.90;;;16.30;88.20;;;;;;5096903;28;20891;-78
2023/10/20 11:50:24;;;;;;;22.90;17.60;;;16.30;88.20;;;;;;5090147;28;20544;-79
2023/10/20 11:52:52;;;;;;;24.60;18.70;;;16.30;88.10;;;;;;5093968;28;20468;-79
2023/10/20 11:55:22;;;;;;;22.00;16.93;;;16.30;88.10;;;;;;5097898;28;20639;-79
2023/10/20 11:57:50;;;;;;;25.23;18.17;;;16.30;88.20;;;;;;5076135;28;20503;-78
2023/10/20 12:00:19;;;;;;;24.13;17.70;;;16.40;88.20;;;;;;5093577;28;20798;-76
2023/10/20 12:02:46;;;;;;;24.60;18.97;;;16.40;88.10;;;;;;5090107;28;20533;-79
2023/10/20 12:05:16;;;;;;;25.20;18.97;;;16.40;88.10;;;;;;5097822;28;20478;-77
2023/10/20 12:07:44;;;;;;;22.70;18.10;;;16.40;88.00;;;;;;5077305;28;20497;-78
2023/10/20 12:10:13;;;;;;;24.00;19.10;;;16.40;88.00;;;;;;5093386;28;20495;-78
2023/10/20 12:12:41;;;;;;;23.87;18.20;;;16.50;88.00;;;;;;5089023;28;20483;-80
2023/10/20 12:15:11;;;;;;;24.57;19.10;;;16.50;88.00;;;;;;5086929;28;20532;-80
2023/10/20 12:17:40;;;;;;;26.57;19.60;;;16.60;88.00;;;;;;5095364;28;20508;-78
2023/10/20 12:20:13;;;;;;;24.63;18.57;;;16.60;88.00;;;;;;5063465;28;21076;-79
2023/10/20 12:22:42;;;;;;;25.23;18.77;;;16.70;87.90;;;;;;5077972;28;20452;-78
2023/10/20 12:25:10;;;;;;;24.87;17.77;;;16.70;87.80;;;;;;5091424;28;20791;-80
2023/10/20 12:27:39;;;;;;;26.47;18.20;;;16.70;87.70;;;;;;5071231;28;20472;-79
2023/10/20 12:30:10;;;;;;;25.53;18.37;;;16.80;87.60;;;;;;5092133;28;20455;-79
2023/10/20 12:32:38;;;;;;;24.03;17.30;;;16.80;87.50;;;;;;5098221;28;20480;-78
2023/10/20 12:35:10;;;;;;;23.30;18.40;;;16.80;87.50;;;;;;5078229;28;20456;-78
2023/10/20 12:37:38;;;;;;;22.83;17.30;;;16.80;87.50;;;;;;5075550;28;21178;-79
2023/10/20 12:40:11;;;;;;;25.70;18.40;;;16.80;87.50;;;;;;5097106;28;20451;-79
2023/10/20 12:42:40;;;;;;;22.40;17.23;;;16.80;87.50;;;;;;5097055;28;20436;-79
2023/10/20 12:45:09;;;;;;;22.80;17.87;;;16.80;87.50;;;;;;5071081;28;20467;-80
2023/10/20 12:47:37;;;;;;;22.80;16.57;;;16.80;87.50;;;;;;5093667;28;20454;-79
2023/10/20 12:50:08;;;;;;;22.17;17.50;;;16.90;87.50;;;;;;5097196;28;20436;-79
2023/10/20 12:52:36;;;;;;;24.10;17.80;;;16.90;87.40;;;;;;5095304;28;20484;-78
2023/10/20 12:55:05;;;;;;;23.60;17.80;;;16.90;87.50;;;;;;5094843;28;20445;-78
2023/10/20 12:57:35;;;;;;;24.90;18.67;;;16.90;87.40;;;;;;5070158;28;20480;-78
2023/10/20 13:00:04;;;;;;;21.67;17.43;;;16.90;87.40;;;;;;5094709;28;20452;-77